Time,TemperatureF,DewpointF,PressureIn,WindDirection,WindDirectionDegrees,WindSpeedMPH,WindSpeedGustMPH,Humidity,HourlyPrecipIn,Conditions,Clouds,dailyrainin,SolarRadiationWatts/m^2,SoftwareType,DateUTC
2013-07-29 00:02:00,78.1,73.2,30.05,SE,137,0.0,0.0,85,0.00,,,0.00,0,Wunderground v.1.15,2013-07-29 04:02:00,
2013-07-29 00:07:00,78.1,73.2,30.05,SE,138,0.0,1.0,85,0.00,,,0.00,0,Wunderground v.1.15,2013-07-29 04:07:00,
2013-07-29 00:12:00,78.1,73.2,30.05,SE,131,0.0,1.0,85,0.00,,,0.00,0,Wunderground v.1.15,2013-07-29 04:12:00,
2013-07-29 00:17:00,77.9,73.0,30.05,SE,137,1.0,1.0,85,0.00,,,0.00,0,Wunderground v.1.15,2013-07-29 04:17:00,
2013-07-29 00:22:00,77.9,73.4,30.05,SE,137,0.0,0.0,86,0.00,,,0.00,0,Wunderground v.1.15,2013-07-29 04:22:00,
2013-07-29 00:32:00,77.7,73.2,30.05,SE,137,0.0,0.0,86,0.00,,,0.00,0,Wunderground v.1.15,2013-07-29 04:32:00,
2013-07-29 00:37:00,77.7,73.2,30.05,SE,138,0.0,0.0,86,0.00,,,0.00,0,Wunderground v.1.15,2013-07-29 04:37:00,
2013-07-29 00:42:00,77.7,73.2,30.05,SE,138,0.0,0.0,86,0.00,,,0.00,0,Wunderground v.1.15,2013-07-29 04:42:00,
2013-07-29 00:47:00,77.7,73.2,30.05,SE,138,0.0,0.0,86,0.00,,,0.00,0,Wunderground v.1.15,2013-07-29 04:47:00,
2013-07-29 00:52:00,77.7,73.2,30.05,SE,138,0.0,0.0,86,0.00,,,0.00,0,Wunderground v.1.15,2013-07-29 04:52:00,
2013-07-29 01:12:00,78.1,74.3,30.05,ENE,78,1.0,1.0,88,0.00,,,0.00,0,Wunderground v.1.15,2013-07-29 05:12:00,
2013-07-29 01:22:00,78.1,74.3,30.04,ESE,104,2.0,2.0,88,0.00,,,0.00,0,Wunderground v.1.15,2013-07-29 05:22:00,
2013-07-29 01:27:00,78.1,74.3,30.04,East,100,2.0,2.0,88,0.00,,,0.00,0,Wunderground v.1.15,2013-07-29 05:27:00,
2013-07-29 01:32:00,78.1,74.3,30.04,ESE,106,2.0,2.0,88,0.00,,,0.00,0,Wunderground v.1.15,2013-07-29 05:32:00,
2013-07-29 01:37:00,78.1,74.3,30.04,ESE,106,1.0,2.0,88,0.00,,,0.00,0,Wunderground v.1.15,2013-07-29 05:37:00,
2013-07-29 01:47:00,78.1,74.3,30.04,ESE,109,1.0,2.0,88,0.00,,,0.00,0,Wunderground v.1.15,2013-07-29 05:47:00,
2013-07-29 01:52:00,78.1,74.3,30.04,ESE,119,2.0,3.0,88,0.00,,,0.00,0,Wunderground v.1.15,2013-07-29 05:52:00,
2013-07-29 02:02:00,77.9,74.1,30.04,ESE,120,3.0,3.0,88,0.00,,,0.00,0,Wunderground v.1.15,2013-07-29 06:02:00,
2013-07-29 02:12:00,77.9,74.1,30.04,ESE,119,1.0,1.0,88,0.00,,,0.00,0,Wunderground v.1.15,2013-07-29 06:12:00,
2013-07-29 02:22:00,77.9,74.1,30.03,ESE,119,1.0,1.0,88,0.00,,,0.00,0,Wunderground v.1.15,2013-07-29 06:22:00,
2013-07-29 02:32:00,77.7,73.9,30.03,ESE,119,0.0,0.0,88,0.00,,,0.00,0,Wunderground v.1.15,2013-07-29 06:32:00,
2013-07-29 02:37:00,77.7,73.9,30.02,ESE,119,1.0,3.0,88,0.00,,,0.00,0,Wunderground v.1.15,2013-07-29 06:37:00,
2013-07-29 02:47:00,77.6,73.8,30.02,ESE,119,1.0,1.0,88,0.00,,,0.00,0,Wunderground v.1.15,2013-07-29 06:47:00,
2013-07-29 02:57:00,77.6,74.1,30.02,ESE,119,0.0,3.0,89,0.00,,,0.00,0,Wunderground v.1.15,2013-07-29 06:57:00,
2013-07-29 03:02:00,77.4,73.9,30.02,ESE,119,1.0,2.0,89,0.00,,,0.00,0,Wunderground v.1.15,2013-07-29 07:02:00,
2013-07-29 03:12:00,77.4,73.9,30.02,ESE,113,1.0,1.0,89,0.00,,,0.00,0,Wunderground v.1.15,2013-07-29 07:12:00,
2013-07-29 03:22:00,77.2,73.7,30.02,ESE,119,1.0,1.0,89,0.00,,,0.00,0,Wunderground v.1.15,2013-07-29 07:22:00,
2013-07-29 03:32:00,77.0,73.5,30.01,ESE,119,0.0,0.0,89,0.00,,,0.00,0,Wunderground v.1.15,2013-07-29 07:32:00,
2013-07-29 03:37:00,77.0,73.5,30.01,ESE,119,0.0,1.0,89,0.00,,,0.00,0,Wunderground v.1.15,2013-07-29 07:37:00,
2013-07-29 03:47:00,76.8,73.6,30.02,ESE,119,1.0,1.0,90,0.00,,,0.00,0,Wunderground v.1.15,2013-07-29 07:47:00,
2013-07-29 03:57:00,76.8,73.6,30.02,ESE,119,0.0,2.0,90,0.00,,,0.00,0,Wunderground v.1.15,2013-07-29 07:57:00,
2013-07-29 04:07:00,76.7,73.5,30.02,ESE,119,0.0,0.0,90,0.00,,,0.00,0,Wunderground v.1.15,2013-07-29 08:07:00,
2013-07-29 04:17:00,76.5,73.3,30.02,ESE,114,0.0,1.0,90,0.00,,,0.00,0,Wunderground v.1.15,2013-07-29 08:17:00,
2013-07-29 04:22:00,76.3,73.1,30.02,ESE,119,0.0,0.0,90,0.00,,,0.00,0,Wunderground v.1.15,2013-07-29 08:22:00,
2013-07-29 04:32:00,76.3,73.1,30.02,ESE,119,0.0,0.0,90,0.00,,,0.00,0,Wunderground v.1.15,2013-07-29 08:32:00,
2013-07-29 04:42:00,76.1,73.0,30.02,ESE,119,0.0,0.0,90,0.00,,,0.00,0,Wunderground v.1.15,2013-07-29 08:42:00,
2013-07-29 04:47:00,76.0,72.9,30.02,ESE,119,0.0,0.0,90,0.00,,,0.00,0,Wunderground v.1.15,2013-07-29 08:47:00,
2013-07-29 04:52:00,76.0,72.9,30.02,ESE,119,0.0,0.0,90,0.00,,,0.00,0,Wunderground v.1.15,2013-07-29 08:52:00,
2013-07-29 05:02:00,75.8,72.7,30.03,ESE,119,0.0,0.0,90,0.00,,,0.00,0,Wunderground v.1.15,2013-07-29 09:02:00,
2013-07-29 05:07:00,75.6,72.5,30.03,ESE,119,0.0,0.0,90,0.00,,,0.00,0,Wunderground v.1.15,2013-07-29 09:07:00,
2013-07-29 05:17:00,75.4,72.3,30.03,ESE,119,0.0,0.0,90,0.00,,,0.00,0,Wunderground v.1.15,2013-07-29 09:17:00,
2013-07-29 05:27:00,75.3,72.2,30.03,ESE,119,0.0,0.0,90,0.00,,,0.00,0,Wunderground v.1.15,2013-07-29 09:27:00,
2013-07-29 05:37:00,75.1,72.0,30.04,ESE,119,0.0,0.0,90,0.00,,,0.00,0,Wunderground v.1.15,2013-07-29 09:37:00,
2013-07-29 05:47:00,75.1,72.0,30.04,ESE,119,0.0,0.0,90,0.00,,,0.00,0,Wunderground v.1.15,2013-07-29 09:47:00,
2013-07-29 05:57:00,74.9,71.8,30.04,ESE,119,0.0,0.0,90,0.00,,,0.00,0,Wunderground v.1.15,2013-07-29 09:57:00,
2013-07-29 06:07:00,74.9,72.1,30.04,ESE,119,0.0,1.0,91,0.00,,,0.00,0,Wunderground v.1.15,2013-07-29 10:07:00,
2013-07-29 06:12:00,75.1,72.3,30.04,ESE,119,0.0,0.0,91,0.00,,,0.00,0,Wunderground v.1.15,2013-07-29 10:12:00,
2013-07-29 06:17:00,74.9,72.1,30.05,ESE,119,0.0,0.0,91,0.00,,,0.00,0,Wunderground v.1.15,2013-07-29 10:17:00,
2013-07-29 06:27:00,74.7,71.9,30.05,ESE,119,0.0,0.0,91,0.00,,,0.00,0,Wunderground v.1.15,2013-07-29 10:27:00,
2013-07-29 06:37:00,74.7,71.9,30.05,ESE,119,0.0,0.0,91,0.00,,,0.00,0,Wunderground v.1.15,2013-07-29 10:37:00,
2013-07-29 06:52:00,74.7,71.9,30.06,ESE,119,0.0,0.0,91,0.00,,,0.00,0,Wunderground v.1.15,2013-07-29 10:52:00,
2013-07-29 06:57:00,74.7,71.9,30.06,ESE,119,0.0,0.0,91,0.00,,,0.00,0,Wunderground v.1.15,2013-07-29 10:57:00,
2013-07-29 07:02:00,74.7,71.9,30.06,ESE,119,0.0,0.0,91,0.00,,,0.00,0,Wunderground v.1.15,2013-07-29 11:02:00,
2013-07-29 07:12:00,74.6,72.1,30.06,ESE,119,0.0,0.0,92,0.00,,,0.00,9,Wunderground v.1.15,2013-07-29 11:12:00,
2013-07-29 07:22:00,74.4,71.9,30.07,ESE,119,0.0,0.0,92,0.00,,,0.00,12,Wunderground v.1.15,2013-07-29 11:22:00,
2013-07-29 07:32:00,74.4,71.9,30.07,ESE,119,0.0,0.0,92,0.00,,,0.00,67,Wunderground v.1.15,2013-07-29 11:32:00,
2013-07-29 07:42:00,74.7,72.2,30.07,ESE,119,0.0,0.0,92,0.00,,,0.00,32,Wunderground v.1.15,2013-07-29 11:42:00,
2013-07-29 07:52:00,75.4,73.2,30.07,ESE,119,0.0,0.0,93,0.00,,,0.00,33,Wunderground v.1.15,2013-07-29 11:52:00,
2013-07-29 08:02:00,76.3,74.1,30.08,ESE,119,0.0,0.0,93,0.00,,,0.00,35,Wunderground v.1.15,2013-07-29 12:02:00,
2013-07-29 08:07:00,76.5,74.3,30.08,ESE,117,0.0,0.0,93,0.00,,,0.00,30,Wunderground v.1.15,2013-07-29 12:07:00,
2013-07-29 08:22:00,77.4,75.2,30.08,ESE,117,0.0,0.0,93,0.00,,,0.00,37,Wunderground v.1.15,2013-07-29 12:22:00,
2013-07-29 08:27:00,77.6,75.4,30.08,ESE,117,0.0,0.0,93,0.00,,,0.00,37,Wunderground v.1.15,2013-07-29 12:27:00,
2013-07-29 08:37:00,77.7,75.5,30.09,SE,134,0.0,0.0,93,0.00,,,0.00,37,Wunderground v.1.15,2013-07-29 12:37:00,
2013-07-29 08:42:00,77.9,75.7,30.09,SE,136,0.0,0.0,93,0.00,,,0.00,40,Wunderground v.1.15,2013-07-29 12:42:00,
2013-07-29 08:52:00,78.3,75.8,30.09,South,186,0.0,0.0,92,0.00,,,0.00,42,Wunderground v.1.15,2013-07-29 12:52:00,
2013-07-29 09:02:00,78.6,75.8,30.09,South,186,0.0,0.0,91,0.00,,,0.00,46,Wunderground v.1.15,2013-07-29 13:02:00,
2013-07-29 09:12:00,79.4,76.2,30.10,South,186,0.0,0.0,90,0.00,,,0.00,51,Wunderground v.1.15,2013-07-29 13:12:00,
2013-07-29 09:22:00,81.2,75.9,30.10,East,100,0.0,0.0,84,0.00,,,0.00,412,Wunderground v.1.15,2013-07-29 13:22:00,
2013-07-29 09:32:00,82.8,74.1,30.10,East,92,0.0,0.0,75,0.00,,,0.00,470,Wunderground v.1.15,2013-07-29 13:32:00,
2013-07-29 09:37:00,83.4,73.8,30.10,East,92,0.0,0.0,73,0.00,,,0.00,500,Wunderground v.1.15,2013-07-29 13:37:00,
2013-07-29 09:47:00,84.0,74.4,30.10,East,86,0.0,0.0,73,0.00,,,0.00,549,Wunderground v.1.15,2013-07-29 13:47:00,
2013-07-29 09:57:00,84.5,74.1,30.10,WSW,248,0.0,0.0,71,0.00,,,0.00,595,Wunderground v.1.15,2013-07-29 13:57:00,
2013-07-29 10:02:00,84.7,74.3,30.10,NE,37,0.0,0.0,71,0.00,,,0.00,612,Wunderground v.1.15,2013-07-29 14:02:00,
2013-07-29 10:07:00,84.9,74.0,30.10,NE,44,0.0,0.0,70,0.00,,,0.00,633,Wunderground v.1.15,2013-07-29 14:07:00,
2013-07-29 10:17:00,84.9,73.2,30.10,NE,52,0.0,0.0,68,0.00,,,0.00,677,Wunderground v.1.15,2013-07-29 14:17:00,
2013-07-29 10:22:00,84.1,72.8,30.11,NE,52,0.0,0.0,69,0.00,,,0.00,130,Wunderground v.1.15,2013-07-29 14:22:00,
2013-07-29 10:32:00,85.5,74.6,30.11,WSW,250,0.0,0.0,70,0.00,,,0.00,725,Wunderground v.1.15,2013-07-29 14:32:00,
2013-07-29 10:42:00,85.7,74.4,30.11,East,92,1.0,1.0,69,0.00,,,0.00,753,Wunderground v.1.15,2013-07-29 14:42:00,
2013-07-29 10:47:00,85.7,73.9,30.11,North,3,1.0,1.0,68,0.00,,,0.00,753,Wunderground v.1.15,2013-07-29 14:47:00,
2013-07-29 10:57:00,85.9,73.7,30.11,East,82,1.0,1.0,67,0.00,,,0.00,778,Wunderground v.1.15,2013-07-29 14:57:00,
2013-07-29 11:07:00,86.1,73.0,30.11,NE,56,0.0,1.0,65,0.00,,,0.00,794,Wunderground v.1.15,2013-07-29 15:07:00,
2013-07-29 11:12:00,85.9,73.2,30.11,North,0,0.0,1.0,66,0.00,,,0.00,808,Wunderground v.1.15,2013-07-29 15:12:00,
2013-07-29 11:22:00,86.5,72.4,30.11,ENE,62,0.0,0.0,63,0.00,,,0.00,823,Wunderground v.1.15,2013-07-29 15:22:00,
2013-07-29 11:27:00,87.2,72.6,30.11,North,349,1.0,2.0,62,0.00,,,0.00,830,Wunderground v.1.15,2013-07-29 15:27:00,
2013-07-29 11:37:00,87.2,71.1,30.11,ENE,58,1.0,2.0,59,0.00,,,0.00,855,Wunderground v.1.15,2013-07-29 15:37:00,
2013-07-29 11:47:00,87.6,71.0,30.11,ENE,76,0.0,1.0,58,0.00,,,0.00,871,Wunderground v.1.15,2013-07-29 15:47:00,
2013-07-29 11:52:00,87.2,69.1,30.11,NNE,25,0.0,0.0,55,0.00,,,0.00,883,Wunderground v.1.15,2013-07-29 15:52:00,
2013-07-29 12:17:00,88.2,68.4,30.11,North,352,1.0,1.0,52,0.00,,,0.00,915,Wunderground v.1.15,2013-07-29 16:17:00,
2013-07-29 12:22:00,88.2,69.5,30.10,NE,34,1.0,2.0,54,0.00,,,0.00,922,Wunderground v.1.15,2013-07-29 16:22:00,
2013-07-29 12:27:00,88.4,68.5,30.10,NE,44,1.0,2.0,52,0.00,,,0.00,929,Wunderground v.1.15,2013-07-29 16:27:00,
2013-07-29 12:37:00,88.8,68.9,30.10,NNE,14,1.0,1.0,52,0.00,,,0.00,940,Wunderground v.1.15,2013-07-29 16:37:00,
2013-07-29 12:52:00,89.5,67.8,30.10,NW,308,0.0,2.0,49,0.00,,,0.00,948,Wunderground v.1.15,2013-07-29 16:52:00,
2013-07-29 13:07:00,89.9,69.9,30.09,NE,41,1.0,1.0,52,0.00,,,0.00,954,Wunderground v.1.15,2013-07-29 17:07:00,
2013-07-29 13:12:00,89.5,69.0,30.09,North,0,1.0,1.0,51,0.00,,,0.00,954,Wunderground v.1.15,2013-07-29 17:12:00,
2013-07-29 13:17:00,90.3,69.1,30.09,SW,227,1.0,1.0,50,0.00,,,0.00,955,Wunderground v.1.15,2013-07-29 17:17:00,
2013-07-29 13:27:00,89.9,69.3,30.09,NNW,335,0.0,1.0,51,0.00,,,0.00,959,Wunderground v.1.15,2013-07-29 17:27:00,
2013-07-29 13:32:00,90.7,70.1,30.09,East,83,0.0,3.0,51,0.00,,,0.00,977,Wunderground v.1.15,2013-07-29 17:32:00,
2013-07-29 13:37:00,90.3,70.3,30.09,ENE,65,0.0,3.0,52,0.00,,,0.00,973,Wunderground v.1.15,2013-07-29 17:37:00,
2013-07-29 13:47:00,90.1,70.7,30.09,NE,34,1.0,1.0,53,0.00,,,0.00,977,Wunderground v.1.15,2013-07-29 17:47:00,
2013-07-29 13:57:00,91.2,70.5,30.09,ENE,58,0.0,0.0,51,0.00,,,0.00,996,Wunderground v.1.15,2013-07-29 17:57:00,
2013-07-29 14:07:00,91.0,71.5,30.09,ESE,106,1.0,1.0,53,0.00,,,0.00,1005,Wunderground v.1.15,2013-07-29 18:07:00,
2013-07-29 14:12:00,91.2,70.5,30.09,NE,51,0.0,0.0,51,0.00,,,0.00,1013,Wunderground v.1.15,2013-07-29 18:12:00,
2013-07-29 14:22:00,91.2,70.5,30.09,North,359,0.0,0.0,51,0.00,,,0.00,1075,Wunderground v.1.15,2013-07-29 18:22:00,
2013-07-29 14:32:00,90.5,70.5,30.09,ENE,64,0.0,0.0,52,0.00,,,0.00,269,Wunderground v.1.15,2013-07-29 18:32:00,
2013-07-29 14:42:00,90.5,74.2,30.08,South,189,1.0,1.0,59,0.00,,,0.00,1019,Wunderground v.1.15,2013-07-29 18:42:00,
2013-07-29 14:52:00,91.0,76.2,30.08,SW,216,2.0,2.0,62,0.00,,,0.00,996,Wunderground v.1.15,2013-07-29 18:52:00,
2013-07-29 14:57:00,91.6,75.2,30.08,SW,234,4.0,5.0,59,0.00,,,0.00,992,Wunderground v.1.15,2013-07-29 18:57:00,
2013-07-29 15:02:00,91.8,74.9,30.08,WNW,291,4.0,4.0,58,0.00,,,0.00,959,Wunderground v.1.15,2013-07-29 19:02:00,
2013-07-29 15:07:00,91.8,74.9,30.08,SW,236,3.0,4.0,58,0.00,,,0.00,989,Wunderground v.1.15,2013-07-29 19:07:00,
2013-07-29 15:17:00,91.4,75.6,30.07,SW,233,4.0,4.0,60,0.00,,,0.00,973,Wunderground v.1.15,2013-07-29 19:17:00,
2013-07-29 15:32:00,91.0,74.7,30.07,NW,305,2.0,2.0,59,0.00,,,0.00,373,Wunderground v.1.15,2013-07-29 19:32:00,
2013-07-29 15:42:00,90.1,75.3,30.07,NW,319,2.0,4.0,62,0.00,,,0.00,274,Wunderground v.1.15,2013-07-29 19:42:00,
2013-07-29 15:47:00,89.5,74.8,30.07,North,352,1.0,4.0,62,0.00,,,0.00,215,Wunderground v.1.15,2013-07-29 19:47:00,
2013-07-29 15:52:00,89.0,74.8,30.06,WNW,284,0.0,0.0,63,0.00,,,0.00,183,Wunderground v.1.15,2013-07-29 19:52:00,
2013-07-29 16:02:00,90.1,75.3,30.06,SW,234,1.0,1.0,62,0.00,,,0.00,853,Wunderground v.1.15,2013-07-29 20:02:00,
2013-07-29 16:07:00,90.3,75.5,30.06,SW,234,1.0,1.0,62,0.00,,,0.00,204,Wunderground v.1.15,2013-07-29 20:07:00,
2013-07-29 16:12:00,89.7,74.5,30.06,SSW,192,1.0,1.0,61,0.00,,,0.00,382,Wunderground v.1.15,2013-07-29 20:12:00,
2013-07-29 16:17:00,90.1,75.3,30.06,West,263,1.0,3.0,62,0.00,,,0.00,218,Wunderground v.1.15,2013-07-29 20:17:00,
2013-07-29 16:22:00,89.9,75.1,30.06,WSW,243,1.0,2.0,62,0.00,,,0.00,135,Wunderground v.1.15,2013-07-29 20:22:00,
2013-07-29 16:32:00,89.3,76.0,30.06,SW,215,2.0,6.0,65,0.00,,,0.00,104,Wunderground v.1.15,2013-07-29 20:32:00,
2013-07-29 16:37:00,88.8,75.5,30.06,SW,216,4.0,6.0,65,0.00,,,0.00,111,Wunderground v.1.15,2013-07-29 20:37:00,
2013-07-29 16:47:00,90.1,77.7,30.05,WSW,244,2.0,5.0,67,0.00,,,0.00,651,Wunderground v.1.15,2013-07-29 20:47:00,
2013-07-29 16:52:00,90.7,76.4,30.05,SSW,202,3.0,3.0,63,0.00,,,0.00,632,Wunderground v.1.15,2013-07-29 20:52:00,
2013-07-29 16:57:00,91.0,75.7,30.05,SW,219,4.0,5.0,61,0.00,,,0.00,616,Wunderground v.1.15,2013-07-29 20:57:00,
2013-07-29 17:12:00,91.2,76.4,30.05,WSW,250,5.0,5.0,62,0.00,,,0.00,554,Wunderground v.1.15,2013-07-29 21:12:00,
2013-07-29 17:17:00,91.6,76.2,30.05,WSW,244,5.0,5.0,61,0.00,,,0.00,540,Wunderground v.1.15,2013-07-29 21:17:00,
2013-07-29 17:27:00,91.6,75.7,30.05,SW,216,5.0,8.0,60,0.00,,,0.00,503,Wunderground v.1.15,2013-07-29 21:27:00,
2013-07-29 17:32:00,91.6,75.7,30.05,NW,305,4.0,7.0,60,0.00,,,0.00,484,Wunderground v.1.15,2013-07-29 21:32:00,
2013-07-29 17:42:00,91.6,75.2,30.06,NW,312,4.0,4.0,59,0.00,,,0.00,456,Wunderground v.1.15,2013-07-29 21:42:00,
2013-07-29 17:52:00,91.8,75.9,30.06,WNW,288,4.0,4.0,60,0.00,,,0.00,431,Wunderground v.1.15,2013-07-29 21:52:00,
2013-07-29 17:57:00,91.8,75.9,30.06,West,280,4.0,4.0,60,0.00,,,0.00,436,Wunderground v.1.15,2013-07-29 21:57:00,
2013-07-29 18:07:00,92.1,75.2,30.06,SW,233,4.0,4.0,58,0.00,,,0.00,364,Wunderground v.1.15,2013-07-29 22:07:00,
2013-07-29 18:17:00,92.3,74.9,30.06,WNW,287,3.0,7.0,57,0.00,,,0.00,333,Wunderground v.1.15,2013-07-29 22:17:00,
2013-07-29 18:22:00,92.1,74.7,30.06,West,268,4.0,4.0,57,0.00,,,0.00,317,Wunderground v.1.15,2013-07-29 22:22:00,
2013-07-29 18:27:00,91.8,74.4,30.06,WNW,288,4.0,4.0,57,0.00,,,0.00,297,Wunderground v.1.15,2013-07-29 22:27:00,
2013-07-29 18:42:00,91.4,74.5,30.07,NW,319,3.0,3.0,58,0.00,,,0.00,243,Wunderground v.1.15,2013-07-29 22:42:00,
2013-07-29 18:47:00,91.2,74.4,30.07,WSW,257,3.0,3.0,58,0.00,,,0.00,227,Wunderground v.1.15,2013-07-29 22:47:00,
2013-07-29 18:57:00,91.0,74.2,30.07,WNW,285,3.0,5.0,58,0.00,,,0.00,194,Wunderground v.1.15,2013-07-29 22:57:00,
2013-07-29 19:07:00,90.3,74.5,30.07,West,263,3.0,4.0,60,0.00,,,0.00,58,Wunderground v.1.15,2013-07-29 23:07:00,
2013-07-29 19:12:00,89.9,74.6,30.07,NW,318,4.0,4.0,61,0.00,,,0.00,55,Wunderground v.1.15,2013-07-29 23:12:00,
2013-07-29 19:22:00,89.5,74.8,30.07,WNW,294,1.0,1.0,62,0.00,,,0.00,49,Wunderground v.1.15,2013-07-29 23:22:00,
2013-07-29 19:32:00,88.8,74.1,30.07,WSW,244,3.0,3.0,62,0.00,,,0.00,46,Wunderground v.1.15,2013-07-29 23:32:00,
2013-07-29 19:37:00,88.4,74.2,30.07,WSW,250,3.0,3.0,63,0.00,,,0.00,51,Wunderground v.1.15,2013-07-29 23:37:00,
2013-07-29 19:42:00,88.2,74.0,30.07,WSW,243,3.0,5.0,63,0.00,,,0.00,55,Wunderground v.1.15,2013-07-29 23:42:00,
2013-07-29 19:57:00,87.6,73.9,30.08,West,270,3.0,5.0,64,0.00,,,0.00,79,Wunderground v.1.15,2013-07-29 23:57:00,
2013-07-29 20:07:00,87.4,74.2,30.08,WNW,302,1.0,2.0,65,0.00,,,0.00,79,Wunderground v.1.15,2013-07-30 00:07:00,
2013-07-29 20:17:00,87.2,74.5,30.09,WNW,302,0.0,1.0,66,0.00,,,0.00,12,Wunderground v.1.15,2013-07-30 00:17:00,
2013-07-29 20:22:00,86.7,74.0,30.09,SE,134,2.0,5.0,66,0.00,,,0.00,5,Wunderground v.1.15,2013-07-30 00:22:00,
2013-07-29 20:27:00,85.9,74.1,30.09,SSE,162,5.0,5.0,68,0.26,,,0.02,0,Wunderground v.1.15,2013-07-30 00:27:00,
2013-07-29 20:32:00,85.5,74.6,30.09,SSE,162,3.0,3.0,70,0.10,,,0.02,0,Wunderground v.1.15,2013-07-30 00:32:00,
2013-07-29 20:42:00,84.3,75.1,30.10,SSE,154,0.0,0.0,74,0.04,,,0.02,0,Wunderground v.1.15,2013-07-30 00:42:00,
2013-07-29 21:02:00,82.2,75.0,30.10,SE,141,0.0,0.0,79,0.00,,,0.02,0,Wunderground v.1.15,2013-07-30 01:02:00,
2013-07-29 21:17:00,81.4,75.0,30.11,SE,141,0.0,1.0,81,0.00,,,0.02,0,Wunderground v.1.15,2013-07-30 01:17:00,
2013-07-29 21:27:00,81.2,75.2,30.11,SE,141,0.0,1.0,82,0.00,,,0.02,0,Wunderground v.1.15,2013-07-30 01:27:00,
2013-07-29 21:37:00,80.9,75.2,30.12,SE,141,0.0,0.0,83,0.00,,,0.02,0,Wunderground v.1.15,2013-07-30 01:37:00,
2013-07-29 21:47:00,80.7,75.1,30.12,SE,141,0.0,0.0,83,0.00,,,0.02,0,Wunderground v.1.15,2013-07-30 01:47:00,
2013-07-29 21:52:00,80.7,75.4,30.12,SE,141,0.0,0.0,84,0.00,,,0.02,0,Wunderground v.1.15,2013-07-30 01:52:00,
2013-07-29 22:02:00,80.5,75.2,30.12,SE,141,0.0,0.0,84,0.00,,,0.02,0,Wunderground v.1.15,2013-07-30 02:02:00,
2013-07-29 22:12:00,80.3,75.0,30.12,SE,141,0.0,0.0,84,0.00,,,0.02,0,Wunderground v.1.15,2013-07-30 02:12:00,
2013-07-29 22:17:00,80.3,75.0,30.12,SE,141,0.0,0.0,84,0.00,,,0.02,0,Wunderground v.1.15,2013-07-30 02:17:00,
2013-07-29 22:22:00,80.3,75.4,30.12,SE,141,0.0,0.0,85,0.00,,,0.02,0,Wunderground v.1.15,2013-07-30 02:22:00,
2013-07-29 22:27:00,80.3,75.4,30.12,SE,141,0.0,0.0,85,0.00,,,0.02,0,Wunderground v.1.15,2013-07-30 02:27:00,
2013-07-29 22:32:00,80.1,75.2,30.13,SE,141,0.0,0.0,85,0.00,,,0.02,0,Wunderground v.1.15,2013-07-30 02:32:00,
2013-07-29 22:42:00,80.1,75.2,30.12,SE,141,0.0,0.0,85,0.00,,,0.02,0,Wunderground v.1.15,2013-07-30 02:42:00,
2013-07-29 22:52:00,80.1,75.5,30.13,SE,141,0.0,0.0,86,0.00,,,0.02,0,Wunderground v.1.15,2013-07-30 02:52:00,
2013-07-29 22:57:00,80.1,75.5,30.13,SE,141,0.0,0.0,86,0.00,,,0.02,0,Wunderground v.1.15,2013-07-30 02:57:00,
2013-07-29 23:02:00,80.1,75.5,30.13,SE,141,0.0,0.0,86,0.00,,,0.02,0,Wunderground v.1.15,2013-07-30 03:02:00,
2013-07-29 23:07:00,80.1,75.5,30.13,SE,134,1.0,1.0,86,0.00,,,0.02,0,Wunderground v.1.15,2013-07-30 03:07:00,
2013-07-29 23:17:00,79.9,75.7,30.13,ESE,123,1.0,1.0,87,0.00,,,0.02,0,Wunderground v.1.15,2013-07-30 03:17:00,
2013-07-29 23:22:00,79.9,75.7,30.12,SE,127,0.0,0.0,87,0.00,,,0.02,0,Wunderground v.1.15,2013-07-30 03:22:00,
2013-07-29 23:32:00,79.9,75.7,30.13,SE,127,1.0,1.0,87,0.00,,,0.02,0,Wunderground v.1.15,2013-07-30 03:32:00,
2013-07-29 23:42:00,79.8,75.6,30.13,SE,127,2.0,2.0,87,0.00,,,0.02,0,Wunderground v.1.15,2013-07-30 03:42:00,
2013-07-29 23:47:00,79.8,75.9,30.13,ESE,123,2.0,2.0,88,0.00,,,0.02,0,Wunderground v.1.15,2013-07-30 03:47:00,
2013-07-29 23:57:00,79.6,75.7,30.13,SSE,147,2.0,4.0,88,0.00,,,0.02,0,Wunderground v.1.15,2013-07-30 03:57:00,